createdAt,value
2022-10-22T00:00:28.699Z,8.75
2022-10-22T00:02:34.606Z,8.75
2022-10-22T00:04:40.458Z,8.75
2022-10-22T00:06:46.814Z,8.73
2022-10-22T00:08:52.447Z,8.72
2022-10-22T00:10:58.191Z,8.7
2022-10-22T00:13:03.324Z,8.71
2022-10-22T00:15:08.342Z,8.71
2022-10-22T00:17:14.065Z,8.74
2022-10-22T00:19:19.604Z,8.76
2022-10-22T00:21:24.782Z,8.75
2022-10-22T00:23:29.963Z,8.76
2022-10-22T00:25:38.496Z,8.75
2022-10-22T00:27:43.729Z,8.76
2022-10-22T00:29:49.101Z,8.8
2022-10-22T00:34:00.168Z,8.78
2022-10-22T00:36:05.302Z,8.78
2022-10-22T00:38:10.836Z,8.82
2022-10-22T00:40:16.007Z,8.8
2022-10-22T00:42:20.944Z,8.82
2022-10-22T00:44:26.235Z,8.83
2022-10-22T00:46:31.271Z,8.81
2022-10-22T00:48:36.514Z,8.82
2022-10-22T00:50:41.450Z,8.85
2022-10-22T00:52:46.673Z,8.87
2022-10-22T00:54:51.725Z,8.86
2022-10-22T00:56:56.709Z,8.9
2022-10-22T00:59:01.795Z,8.9
2022-10-22T01:01:07.860Z,8.93
2022-10-22T01:03:13.497Z,8.96
2022-10-22T01:05:18.936Z,8.95
2022-10-22T01:07:24.860Z,8.99
2022-10-22T01:09:30.271Z,9.06
2022-10-22T01:11:35.456Z,9.02
2022-10-22T01:13:40.374Z,9.02
2022-10-22T01:15:45.790Z,9.05
2022-10-22T01:17:51.598Z,9.05
2022-10-22T01:19:56.787Z,9.08
2022-10-22T01:22:01.807Z,9.09
2022-10-22T01:24:06.930Z,9.08
2022-10-22T01:26:12.084Z,9.1
2022-10-22T01:28:17.942Z,9.1
2022-10-22T01:30:23.002Z,9.12
2022-10-22T01:32:28.165Z,9.13
2022-10-22T01:34:33.544Z,9.13
2022-10-22T01:36:38.922Z,9.11
2022-10-22T01:38:43.947Z,9.17
2022-10-22T01:40:49.445Z,9.19
2022-10-22T01:42:54.587Z,9.2
2022-10-22T01:44:59.867Z,9.19
2022-10-22T01:47:05.073Z,9.2
2022-10-22T01:49:10.626Z,9.23
2022-10-22T01:51:15.851Z,9.24
2022-10-22T01:53:20.791Z,9.25
2022-10-22T01:55:26.109Z,9.21
2022-10-22T01:57:31.411Z,9.26
2022-10-22T01:59:36.648Z,9.24
2022-10-22T02:01:42.142Z,9.27
2022-10-22T02:03:47.216Z,9.33
2022-10-22T02:05:53.090Z,9.32
2022-10-22T02:07:58.446Z,9.36
2022-10-22T02:10:03.610Z,9.36
2022-10-22T02:12:09.241Z,9.35
2022-10-22T02:14:14.739Z,9.36
2022-10-22T02:16:20.023Z,9.38
2022-10-22T02:18:25.063Z,9.36
2022-10-22T02:20:30.217Z,9.38
2022-10-22T02:22:35.606Z,9.35
2022-10-22T02:24:41.970Z,9.35
2022-10-22T02:26:47.285Z,9.35
2022-10-22T02:28:53.115Z,9.36
2022-10-22T02:30:59.311Z,9.33
2022-10-22T02:33:04.982Z,9.38
2022-10-22T02:35:10.272Z,9.38
2022-10-22T02:37:15.780Z,9.4
2022-10-22T02:39:21.040Z,9.4
2022-10-22T02:41:26.145Z,9.39
2022-10-22T02:43:32.217Z,9.42
2022-10-22T02:45:37.670Z,9.42
2022-10-22T02:47:43.407Z,9.39
2022-10-22T02:49:49.054Z,9.38
2022-10-22T02:51:54.393Z,9.36
2022-10-22T02:53:59.636Z,9.42
2022-10-22T02:56:05.363Z,9.44
2022-10-22T02:58:10.666Z,9.46
2022-10-22T03:00:16.002Z,9.45
2022-10-22T03:02:21.414Z,9.43
2022-10-22T03:04:26.495Z,9.46
2022-10-22T03:06:31.628Z,9.44
2022-10-22T03:08:36.792Z,9.47
2022-10-22T03:10:42.156Z,9.44
2022-10-22T03:12:47.569Z,9.48
2022-10-22T03:14:52.891Z,9.46
2022-10-22T03:16:58.267Z,9.41
2022-10-22T03:19:03.562Z,9.45
2022-10-22T03:21:09.159Z,9.49
2022-10-22T03:23:14.187Z,9.48
2022-10-22T03:25:19.293Z,9.47
2022-10-22T03:27:24.289Z,9.52
2022-10-22T03:29:29.599Z,9.52
2022-10-22T03:31:35.098Z,9.55
2022-10-22T03:33:40.346Z,9.51
2022-10-22T03:35:45.337Z,9.5
2022-10-22T03:37:50.831Z,9.53
2022-10-22T03:39:55.939Z,9.52
2022-10-22T03:42:01.103Z,9.52
2022-10-22T03:44:06.272Z,9.48
2022-10-22T03:46:11.361Z,9.52
2022-10-22T03:48:16.626Z,9.48
2022-10-22T03:50:21.890Z,9.53
2022-10-22T03:52:27.158Z,9.57
2022-10-22T03:54:32.578Z,9.61
2022-10-22T03:56:37.945Z,9.59
2022-10-22T03:58:42.979Z,9.53
2022-10-22T04:00:47.951Z,9.54
2022-10-22T04:02:53.607Z,9.55
2022-10-22T04:04:58.880Z,9.54
2022-10-22T04:07:04.463Z,9.55
2022-10-22T04:09:09.514Z,9.55
2022-10-22T04:11:14.924Z,9.54
2022-10-22T04:13:20.093Z,9.54
2022-10-22T04:15:25.716Z,9.53
2022-10-22T04:17:30.865Z,9.54
2022-10-22T04:19:36.413Z,9.52
2022-10-22T04:21:41.631Z,9.52
2022-10-22T04:23:46.644Z,9.51
2022-10-22T04:25:51.793Z,9.5
2022-10-22T04:27:57.256Z,9.54
2022-10-22T04:30:02.531Z,9.58
2022-10-22T04:32:07.712Z,9.61
2022-10-22T04:34:13.196Z,9.57
2022-10-22T04:36:18.414Z,9.55
2022-10-22T04:38:24.022Z,9.56
2022-10-22T04:40:29.042Z,9.59
2022-10-22T04:42:34.428Z,9.62
2022-10-22T04:44:39.624Z,9.6
2022-10-22T04:46:44.644Z,9.62
2022-10-22T04:48:49.583Z,9.58
2022-10-22T04:50:54.685Z,9.57
2022-10-22T04:52:59.719Z,9.58
2022-10-22T04:55:05.237Z,9.59
2022-10-22T04:57:10.410Z,9.62
2022-10-22T04:59:15.690Z,9.61
2022-10-22T05:01:21.669Z,9.6
2022-10-22T05:03:27.604Z,9.61
2022-10-22T05:05:33.449Z,9.57
2022-10-22T05:07:39.010Z,9.56
2022-10-22T05:09:46.477Z,9.56
2022-10-22T05:11:51.725Z,9.55
2022-10-22T05:13:56.943Z,9.57
2022-10-22T05:16:02.981Z,9.57
2022-10-22T05:18:08.768Z,9.59
2022-10-22T05:20:13.862Z,9.58
2022-10-22T05:22:19.012Z,9.56
2022-10-22T05:24:25.046Z,9.58
2022-10-22T05:26:30.213Z,9.6
2022-10-22T05:28:35.305Z,9.59
2022-10-22T05:30:40.507Z,9.58
2022-10-22T05:32:46.716Z,9.61
2022-10-22T05:34:51.970Z,9.59
2022-10-22T05:36:57.133Z,9.6
2022-10-22T05:39:02.665Z,9.64
2022-10-22T05:41:08.088Z,9.64
2022-10-22T05:43:13.402Z,9.64
2022-10-22T05:45:19.116Z,9.62
2022-10-22T05:47:24.448Z,9.65
2022-10-22T05:49:30.157Z,9.71
2022-10-22T05:51:35.318Z,9.74
2022-10-22T05:53:40.748Z,9.85
2022-10-22T05:55:47.089Z,9.92
2022-10-22T05:57:52.831Z,9.98
2022-10-22T05:59:57.845Z,9.98
2022-10-22T06:02:03.177Z,9.95
2022-10-22T06:04:08.776Z,9.98
2022-10-22T06:06:15.009Z,9.99
2022-10-22T06:08:20.859Z,10.01
2022-10-22T06:10:26.924Z,9.99
2022-10-22T06:12:33.125Z,10.01
2022-10-22T06:14:39.345Z,10.01
2022-10-22T06:16:45.145Z,10.05
2022-10-22T06:18:50.795Z,10.07
2022-10-22T06:20:56.857Z,9.95
2022-10-22T06:23:02.631Z,10.02
2022-10-22T06:25:08.638Z,10.08
2022-10-22T06:27:14.933Z,10.07
2022-10-22T06:29:21.172Z,10.06
2022-10-22T06:31:27.580Z,10.12
2022-10-22T06:33:33.445Z,10.07
2022-10-22T06:35:39.566Z,10.13
2022-10-22T06:37:45.623Z,10.04
2022-10-22T06:39:51.186Z,10.1
2022-10-22T06:41:57.675Z,10.21
2022-10-22T06:44:03.833Z,10.27
2022-10-22T06:46:10.233Z,10.29
2022-10-22T06:48:24.001Z,10.37
2022-10-22T06:50:30.058Z,10.42
2022-10-22T06:52:35.977Z,10.47
2022-10-22T06:54:42.202Z,10.42
2022-10-22T06:56:48.931Z,10.52
2022-10-22T06:58:55.330Z,10.53
2022-10-22T07:01:01.690Z,10.54
2022-10-22T07:03:07.983Z,10.49
2022-10-22T07:05:14.076Z,10.46
2022-10-22T07:07:20.380Z,10.47
2022-10-22T07:09:26.631Z,10.51
2022-10-22T07:11:32.834Z,10.52
2022-10-22T07:13:38.960Z,10.54
2022-10-22T07:15:45.265Z,10.45
2022-10-22T07:17:51.357Z,10.45
2022-10-22T07:19:57.612Z,10.49
2022-10-22T07:22:03.879Z,10.48
2022-10-22T07:24:10.093Z,10.53
2022-10-22T07:26:16.290Z,10.71
2022-10-22T07:28:22.473Z,10.89
2022-10-22T07:30:28.927Z,11.09
2022-10-22T07:32:35.230Z,11.35
2022-10-22T07:34:41.841Z,11.52
2022-10-22T07:36:50.062Z,11.58
2022-10-22T07:38:56.398Z,11.51
2022-10-22T07:41:02.489Z,11.63
2022-10-22T07:43:09.231Z,11.72
2022-10-22T07:45:15.605Z,11.51
2022-10-22T07:47:21.848Z,11.57
2022-10-22T07:49:28.176Z,11.51
2022-10-22T07:51:34.723Z,11.39
2022-10-22T07:53:41.072Z,11.54
2022-10-22T07:55:47.247Z,11.29
2022-10-22T07:57:53.997Z,11.31
2022-10-22T08:00:00.335Z,11.45
2022-10-22T08:02:06.518Z,11.43
2022-10-22T08:04:12.469Z,11.44
2022-10-22T08:06:18.720Z,11.49
2022-10-22T08:08:27.025Z,11.42
2022-10-22T08:10:36.820Z,11.63
2022-10-22T08:12:43.755Z,11.73
2022-10-22T08:14:50.712Z,11.65
2022-10-22T08:16:56.970Z,11.85
2022-10-22T08:19:03.147Z,11.91
2022-10-22T08:21:09.356Z,11.92
2022-10-22T08:23:15.477Z,11.95
2022-10-22T08:25:29.538Z,11.74
2022-10-22T08:27:35.834Z,11.69
2022-10-22T08:29:43.106Z,11.88
2022-10-22T08:31:49.654Z,12.04
2022-10-22T08:33:56.294Z,12.07
2022-10-22T08:36:02.696Z,11.99
2022-10-22T08:38:09.201Z,11.77
2022-10-22T08:40:15.399Z,11.92
2022-10-22T08:42:21.730Z,12.08
2022-10-22T08:44:28.430Z,12.09
2022-10-22T08:46:34.649Z,12.3
2022-10-22T08:48:41.208Z,12.25
2022-10-22T08:50:47.520Z,12.31
2022-10-22T08:52:54.073Z,12.51
2022-10-22T08:55:00.006Z,12.74
2022-10-22T08:57:06.270Z,12.85
2022-10-22T08:59:13.078Z,13.11
2022-10-22T09:01:19.159Z,13.22
2022-10-22T09:03:26.049Z,12.96
2022-10-22T09:05:34.009Z,13.11
2022-10-22T09:07:40.679Z,13.24
2022-10-22T09:09:47.417Z,13.4
2022-10-22T09:11:54.050Z,13.59
2022-10-22T09:14:00.376Z,13.68
2022-10-22T09:16:06.905Z,13.87
2022-10-22T09:18:13.236Z,13.6
2022-10-22T09:20:19.621Z,13.81
2022-10-22T09:22:26.512Z,13.88
2022-10-22T09:24:33.248Z,13.58
2022-10-22T09:26:40.599Z,13.46
2022-10-22T09:28:47.006Z,13.49
2022-10-22T09:30:53.197Z,13.5
2022-10-22T09:33:00.001Z,13.51
2022-10-22T09:35:06.072Z,13.18
2022-10-22T09:37:12.768Z,13.45
2022-10-22T09:39:19.617Z,13.58
2022-10-22T09:41:25.782Z,13.89
2022-10-22T09:43:32.555Z,14
2022-10-22T09:45:38.921Z,13.86
2022-10-22T09:48:00.893Z,13.62
2022-10-22T09:50:08.268Z,13.53
2022-10-22T09:52:14.377Z,13.54
2022-10-22T09:54:20.685Z,13.62
2022-10-22T09:56:26.924Z,13.56
2022-10-22T09:58:33.224Z,13.27
2022-10-22T10:00:39.510Z,13.26
2022-10-22T10:02:45.615Z,13.19
2022-10-22T10:04:52.413Z,13.11
2022-10-22T10:06:58.941Z,13.22
2022-10-22T10:09:04.975Z,13.27
2022-10-22T10:11:12.011Z,13.33
2022-10-22T10:13:18.095Z,13.35
2022-10-22T10:15:24.510Z,13.5
2022-10-22T10:17:31.387Z,13.27
2022-10-22T10:19:37.778Z,13.25
2022-10-22T10:21:44.690Z,13.25
2022-10-22T10:23:51.486Z,13.19
2022-10-22T10:25:57.528Z,13.13
2022-10-22T10:28:03.557Z,13.01
2022-10-22T10:30:10.149Z,13.05
2022-10-22T10:32:18.817Z,12.98
2022-10-22T10:34:29.942Z,13.07
2022-10-22T10:36:35.908Z,13.28
2022-10-22T10:38:42.354Z,13.44
2022-10-22T10:40:48.755Z,13.63
2022-10-22T10:42:55.629Z,13.49
2022-10-22T10:45:01.602Z,13.39
2022-10-22T10:47:07.887Z,13.2
2022-10-22T10:49:14.838Z,12.93
2022-10-22T10:51:21.214Z,12.92
2022-10-22T10:53:27.866Z,13.04
2022-10-22T10:55:34.236Z,13.07
2022-10-22T10:57:41.201Z,12.97
2022-10-22T10:59:47.843Z,13.02
2022-10-22T11:01:54.434Z,13.05
2022-10-22T11:04:01.048Z,13.04
2022-10-22T11:06:07.132Z,13.08
2022-10-22T11:08:14.966Z,13.09
2022-10-22T11:10:22.025Z,13.19
2022-10-22T11:12:28.376Z,13.32
2022-10-22T11:14:35.163Z,13.38
2022-10-22T11:16:41.280Z,13.44
2022-10-22T11:18:47.256Z,13.39
2022-10-22T11:20:53.668Z,13.52
2022-10-22T11:23:18.579Z,13.48
2022-10-22T11:25:29.336Z,13.71
2022-10-22T11:27:35.791Z,13.79
2022-10-22T11:29:43.174Z,13.85
2022-10-22T11:31:49.412Z,13.87
2022-10-22T11:34:00.424Z,13.77
2022-10-22T11:36:38.327Z,13.62
2022-10-22T11:38:44.807Z,13.71
2022-10-22T11:40:51.517Z,13.58
2022-10-22T11:42:57.791Z,13.52
2022-10-22T11:45:04.411Z,13.68
2022-10-22T11:47:10.849Z,13.67
2022-10-22T11:49:17.152Z,13.75
2022-10-22T11:51:23.285Z,13.91
2022-10-22T11:53:29.695Z,14
2022-10-22T11:55:35.963Z,14.01
2022-10-22T11:57:42.628Z,14.1
2022-10-22T11:59:49.272Z,14.13
2022-10-22T12:01:55.933Z,14.18
2022-10-22T12:04:01.992Z,14.16
2022-10-22T12:06:08.533Z,14.06
2022-10-22T12:08:14.892Z,14.04
2022-10-22T12:10:22.174Z,13.97
2022-10-22T12:12:28.402Z,14.07
2022-10-22T12:14:34.938Z,14.08
2022-10-22T12:16:57.417Z,14.01
2022-10-22T12:19:03.964Z,14.01
2022-10-22T12:21:10.251Z,13.96
2022-10-22T12:23:16.315Z,13.68
2022-10-22T12:25:22.605Z,13.69
2022-10-22T12:27:28.733Z,13.71
2022-10-22T12:29:35.091Z,13.67
2022-10-22T12:31:41.462Z,13.55
2022-10-22T12:33:47.713Z,13.6
2022-10-22T12:35:54.127Z,13.52
2022-10-22T12:38:00.173Z,13.59
2022-10-22T12:40:06.677Z,13.65
2022-10-22T12:42:13.300Z,13.63
2022-10-22T12:44:19.569Z,13.75
2022-10-22T12:46:26.252Z,13.65
2022-10-22T12:48:33.263Z,13.59
2022-10-22T12:50:39.405Z,13.44
2022-10-22T12:52:44.921Z,13.36
2022-10-22T12:54:50.832Z,13.42
2022-10-22T12:56:57.208Z,13.59
2022-10-22T12:59:03.473Z,13.46
2022-10-22T13:01:09.821Z,13.45
2022-10-22T13:03:16.365Z,13.56
2022-10-22T13:05:22.885Z,13.57
2022-10-22T13:07:28.998Z,13.46
2022-10-22T13:09:36.415Z,13.41
2022-10-22T13:11:43.154Z,13.49
2022-10-22T13:13:49.224Z,13.43
2022-10-22T13:15:54.780Z,13.52
2022-10-22T13:18:00.936Z,13.58
2022-10-22T13:20:07.181Z,13.58
2022-10-22T13:22:13.431Z,13.59
2022-10-22T13:24:19.763Z,13.54
2022-10-22T13:26:26.190Z,13.55
2022-10-22T13:28:32.447Z,13.37
2022-10-22T13:30:39.048Z,13.36
2022-10-22T13:32:48.383Z,13.29
2022-10-22T13:34:54.798Z,13.32
2022-10-22T13:37:01.082Z,13.31
2022-10-22T13:39:07.348Z,13.27
2022-10-22T13:41:13.394Z,13.28
2022-10-22T13:43:19.483Z,13.25
2022-10-22T13:45:25.468Z,13.22
2022-10-22T13:47:32.018Z,13.15
2022-10-22T13:49:39.073Z,13.21
2022-10-22T13:51:47.059Z,13.2
2022-10-22T13:53:53.516Z,13.22
2022-10-22T13:55:59.742Z,13.27
2022-10-22T13:58:06.386Z,13.31
2022-10-22T14:00:13.374Z,13.21
2022-10-22T14:02:19.401Z,13.22
2022-10-22T14:04:25.641Z,13.25
2022-10-22T14:06:32.137Z,13.32
2022-10-22T14:08:40.025Z,13.31
2022-10-22T14:10:47.815Z,13.31
2022-10-22T14:12:54.268Z,13.33
2022-10-22T14:15:00.528Z,13.25
2022-10-22T14:17:07.176Z,13.27
2022-10-22T14:19:13.816Z,13.35
2022-10-22T14:21:20.156Z,13.36
2022-10-22T14:23:26.689Z,13.42
2022-10-22T14:25:33.002Z,13.42
2022-10-22T14:27:40.083Z,13.34
2022-10-22T14:29:49.015Z,13.36
2022-10-22T14:32:01.752Z,13.45
2022-10-22T14:34:08.772Z,13.46
2022-10-22T14:36:15.080Z,13.42
2022-10-22T14:38:21.470Z,13.37
2022-10-22T14:40:28.037Z,13.36
2022-10-22T14:42:34.790Z,13.39
2022-10-22T14:44:42.832Z,13.36
2022-10-22T14:46:50.169Z,13.35
2022-10-22T14:48:56.388Z,13.24
2022-10-22T14:51:03.341Z,13.28
2022-10-22T14:53:09.542Z,13.29
2022-10-22T14:55:15.836Z,13.31
2022-10-22T14:57:22.616Z,13.32
2022-10-22T14:59:29.355Z,13.28
2022-10-22T15:01:36.173Z,13.25
2022-10-22T15:03:42.756Z,13.24
2022-10-22T15:05:49.523Z,13.24
2022-10-22T15:07:56.096Z,13.24
2022-10-22T15:10:04.407Z,13.25
2022-10-22T15:12:11.629Z,13.17
2022-10-22T15:14:17.938Z,13.18
2022-10-22T15:16:26.027Z,13.12
2022-10-22T15:18:34.864Z,13.15
2022-10-22T15:20:41.153Z,13.14
2022-10-22T15:22:48.087Z,13.1
2022-10-22T15:24:55.662Z,13.06
2022-10-22T15:27:06.101Z,13.04
2022-10-22T15:29:15.700Z,13.04
2022-10-22T15:31:22.345Z,13.01
2022-10-22T15:33:28.676Z,12.97
2022-10-22T15:35:35.833Z,12.94
2022-10-22T15:37:42.137Z,12.96
2022-10-22T15:39:49.928Z,13.01
2022-10-22T15:41:56.599Z,13.03
2022-10-22T15:44:04.603Z,12.97
2022-10-22T15:46:11.392Z,12.97
2022-10-22T15:48:18.259Z,12.97
2022-10-22T15:50:25.065Z,12.94
2022-10-22T15:52:33.722Z,12.94
2022-10-22T15:54:41.169Z,12.96
2022-10-22T15:56:48.822Z,12.95
2022-10-22T15:58:55.904Z,12.94
2022-10-22T16:01:02.821Z,12.95
2022-10-22T16:03:10.921Z,12.95
2022-10-22T16:05:19.211Z,12.98
2022-10-22T16:07:27.099Z,12.96
2022-10-22T16:09:34.565Z,12.88
2022-10-22T16:11:41.169Z,12.91
2022-10-22T16:13:48.651Z,12.92
2022-10-22T16:15:56.325Z,12.92
2022-10-22T16:18:02.798Z,12.86
2022-10-22T16:20:10.671Z,12.94
2022-10-22T16:22:19.026Z,12.94
2022-10-22T16:24:25.892Z,12.92
2022-10-22T16:26:32.519Z,12.92
2022-10-22T16:28:39.930Z,12.9
2022-10-22T16:30:49.255Z,12.93
2022-10-22T16:32:56.315Z,12.95
2022-10-22T16:35:07.043Z,12.88
2022-10-22T16:37:15.140Z,12.9
2022-10-22T16:39:24.261Z,12.89
2022-10-22T16:41:36.037Z,12.85
2022-10-22T16:43:44.625Z,12.86
2022-10-22T16:45:51.358Z,12.85
2022-10-22T16:47:59.425Z,12.87
2022-10-22T16:50:07.151Z,12.89
2022-10-22T16:52:16.973Z,12.86
2022-10-22T16:54:23.404Z,12.81
2022-10-22T16:56:30.812Z,12.82
2022-10-22T16:58:38.283Z,12.8
2022-10-22T17:00:46.389Z,12.78
2022-10-22T17:02:58.085Z,12.79
2022-10-22T17:05:08.102Z,12.8
2022-10-22T17:07:20.988Z,12.81
2022-10-22T17:09:31.473Z,12.8
2022-10-22T17:11:42.546Z,12.8
2022-10-22T17:13:54.778Z,12.76
2022-10-22T17:16:05.061Z,12.75
2022-10-22T17:18:14.298Z,12.73
2022-10-22T17:20:28.915Z,12.72
2022-10-22T17:22:47.284Z,12.65
2022-10-22T17:24:56.543Z,12.69
2022-10-22T17:27:07.514Z,12.71
2022-10-22T17:29:16.483Z,12.7
2022-10-22T17:31:34.936Z,12.65
2022-10-22T17:33:43.973Z,12.64
2022-10-22T17:35:58.393Z,12.68
2022-10-22T17:38:07.077Z,12.67
2022-10-22T17:40:18.056Z,12.68
2022-10-22T17:42:28.516Z,12.7
2022-10-22T17:44:37.947Z,12.7
2022-10-22T17:46:49.835Z,12.7
2022-10-22T17:48:59.508Z,12.71
2022-10-22T17:51:12.172Z,12.7
2022-10-22T17:53:19.954Z,12.72
2022-10-22T17:55:31.279Z,12.75
2022-10-22T17:57:40.986Z,12.74
2022-10-22T17:59:51.974Z,12.75
2022-10-22T18:02:01.072Z,12.74
2022-10-22T18:04:11.148Z,12.75
2022-10-22T18:06:22.832Z,12.78
2022-10-22T18:08:32.623Z,12.76
2022-10-22T18:10:43.864Z,12.78
2022-10-22T18:12:54.449Z,12.72
2022-10-22T18:15:04.802Z,12.73
2022-10-22T18:19:25.609Z,12.74
2022-10-22T18:21:49.281Z,12.77
2022-10-22T18:24:09.824Z,12.78
2022-10-22T18:26:19.277Z,12.76
2022-10-22T18:28:35.395Z,12.76
2022-10-22T18:30:44.631Z,12.75
2022-10-22T18:32:55.002Z,12.73
2022-10-22T18:35:04.524Z,12.75
2022-10-22T18:37:16.998Z,12.75
2022-10-22T18:39:28.259Z,12.72
2022-10-22T18:41:39.174Z,12.72
2022-10-22T18:43:53.512Z,12.73
2022-10-22T18:46:01.473Z,12.74
2022-10-22T18:48:11.529Z,12.77
2022-10-22T18:50:36.242Z,12.76
2022-10-22T18:52:45.978Z,12.72
2022-10-22T18:54:59.746Z,12.7
2022-10-22T18:57:12.217Z,12.71
2022-10-22T18:59:26.952Z,12.69
2022-10-22T19:01:36.817Z,12.7
2022-10-22T19:03:53.305Z,12.7
2022-10-22T19:06:08.678Z,12.72
2022-10-22T19:08:17.402Z,12.7
2022-10-22T19:10:26.353Z,12.72
2022-10-22T19:12:40.163Z,12.72
2022-10-22T19:14:48.965Z,12.75
2022-10-22T19:16:57.737Z,12.75
2022-10-22T19:19:09.393Z,12.76
2022-10-22T19:21:18.122Z,12.76
2022-10-22T19:23:30.550Z,12.77
2022-10-22T19:25:43.085Z,12.77
2022-10-22T19:27:52.209Z,12.75
2022-10-22T19:30:03.034Z,12.76
2022-10-22T19:32:13.006Z,12.76
2022-10-22T19:34:27.432Z,12.75
2022-10-22T19:36:38.685Z,12.76
2022-10-22T19:38:47.529Z,12.77
2022-10-22T19:40:57.888Z,12.76
2022-10-22T19:43:09.759Z,12.77
2022-10-22T19:45:25.667Z,12.78
2022-10-22T19:47:37.038Z,12.78
2022-10-22T19:49:48.397Z,12.78
2022-10-22T19:51:58.773Z,12.81
2022-10-22T19:54:11.207Z,12.83
2022-10-22T19:56:25.023Z,12.81
2022-10-22T19:58:35.537Z,12.79
2022-10-22T20:00:44.181Z,12.82
2022-10-22T20:02:54.533Z,12.82
2022-10-22T20:05:03.445Z,12.82
2022-10-22T20:07:14.127Z,12.84
2022-10-22T20:09:23.218Z,12.84
2022-10-22T20:11:32.417Z,12.8
2022-10-22T20:15:56.048Z,12.87
2022-10-22T20:18:12.955Z,12.89
2022-10-22T20:20:25.604Z,12.92
2022-10-22T20:22:34.400Z,12.9
2022-10-22T20:24:41.542Z,12.93
2022-10-22T20:26:51.259Z,12.9
2022-10-22T20:29:03.790Z,12.92
2022-10-22T20:31:13.221Z,12.91
2022-10-22T20:33:22.276Z,12.91
2022-10-22T20:35:31.362Z,12.94
2022-10-22T20:37:40.952Z,12.97
2022-10-22T20:39:47.845Z,12.95
2022-10-22T20:41:56.350Z,12.97
2022-10-22T20:44:05.948Z,12.98
2022-10-22T20:46:15.247Z,13
2022-10-22T20:48:22.776Z,13
2022-10-22T20:50:33.813Z,13.05
2022-10-22T20:52:42.514Z,13.01
2022-10-22T20:54:49.741Z,13.04
2022-10-22T20:57:02.327Z,13.06
2022-10-22T20:59:11.706Z,13.08
2022-10-22T21:01:18.801Z,13.07
2022-10-22T21:03:30.877Z,13.12
2022-10-22T21:05:42.494Z,13.09
2022-10-22T21:07:52.000Z,13.1
2022-10-22T21:10:04.396Z,13.14
2022-10-22T21:12:12.699Z,13.17
2022-10-22T21:14:19.420Z,13.16
2022-10-22T21:16:26.127Z,13.14
2022-10-22T21:18:32.589Z,13.17
2022-10-22T21:20:39.028Z,13.16
2022-10-22T21:22:45.810Z,13.22
2022-10-22T21:24:51.886Z,13.24
2022-10-22T21:26:58.487Z,13.21
2022-10-22T21:29:05.558Z,13.25
2022-10-22T21:31:11.813Z,13.23
2022-10-22T21:33:20.880Z,13.23
2022-10-22T21:35:27.478Z,13.23
2022-10-22T21:37:34.881Z,13.25
2022-10-22T21:39:42.138Z,13.28
2022-10-22T21:41:49.900Z,13.25
2022-10-22T21:43:57.401Z,13.28
2022-10-22T21:46:05.424Z,13.28
2022-10-22T21:48:14.653Z,13.29
2022-10-22T21:50:21.174Z,13.29
2022-10-22T21:52:27.846Z,13.25
2022-10-22T21:54:35.132Z,13.3
2022-10-22T21:56:41.863Z,13.3
2022-10-22T21:58:47.910Z,13.3
2022-10-22T22:00:54.718Z,13.28
2022-10-22T22:03:03.214Z,13.26
2022-10-22T22:05:10.135Z,13.28
2022-10-22T22:07:17.668Z,13.25
2022-10-22T22:09:24.193Z,13.28
2022-10-22T22:11:30.591Z,13.32
2022-10-22T22:13:37.541Z,13.31
2022-10-22T22:15:44.747Z,13.34
2022-10-22T22:17:51.529Z,13.33
2022-10-22T22:19:57.722Z,13.29
2022-10-22T22:22:04.276Z,13.3
2022-10-22T22:24:10.740Z,13.32
2022-10-22T22:26:17.023Z,13.3
2022-10-22T22:28:29.231Z,13.32
2022-10-22T22:30:35.262Z,13.31
2022-10-22T22:32:42.750Z,13.3
2022-10-22T22:34:49.667Z,13.31
2022-10-22T22:36:56.004Z,13.3
2022-10-22T22:39:02.546Z,13.3
2022-10-22T22:41:09.021Z,13.27
2022-10-22T22:43:15.973Z,13.31
2022-10-22T22:45:22.508Z,13.32
2022-10-22T22:47:29.372Z,13.34
2022-10-22T22:49:37.192Z,13.29
2022-10-22T22:51:42.705Z,13.31
2022-10-22T22:53:48.248Z,13.31
2022-10-22T22:55:54.584Z,13.33
2022-10-22T22:58:00.247Z,13.34
2022-10-22T23:00:06.834Z,13.32
2022-10-22T23:02:13.328Z,13.31
2022-10-22T23:04:19.202Z,13.28
2022-10-22T23:06:25.566Z,13.3
2022-10-22T23:08:31.440Z,13.29
2022-10-22T23:10:37.079Z,13.26
2022-10-22T23:12:43.750Z,13.25
2022-10-22T23:14:50.628Z,13.29
2022-10-22T23:16:56.055Z,13.24
2022-10-22T23:19:01.401Z,13.19
2022-10-22T23:21:06.646Z,13.24
2022-10-22T23:23:12.784Z,13.23
2022-10-22T23:25:18.204Z,13.23
2022-10-22T23:27:24.138Z,13.21
2022-10-22T23:29:29.605Z,13.22
2022-10-22T23:31:36.078Z,13.24
2022-10-22T23:33:41.132Z,13.2
2022-10-22T23:35:46.461Z,13.23
2022-10-22T23:37:51.864Z,13.2
2022-10-22T23:39:57.274Z,13.18
2022-10-22T23:42:02.744Z,13.19
2022-10-22T23:44:08.627Z,13.24
2022-10-22T23:46:14.442Z,13.2
2022-10-22T23:48:19.971Z,13.17
2022-10-22T23:50:25.396Z,13.15
2022-10-22T23:52:31.404Z,13.17
2022-10-22T23:54:36.910Z,13.13
2022-10-22T23:56:42.306Z,13.04
2022-10-22T23:58:47.625Z,13.03
